Time;durP1;ratioP1;P1;durP2;ratioP2;P2;SDS_P1;SDS_P2;PMS_P1;PMS_P2;Temp;Humidity;BMP_temperature;BMP_pressure;BME280_temperature;BME280_humidity;BME280_pressure;Samples;Min_cycle;Max_cycle;Signal;HPM_P1;HPM_P2
2021/10/01 00:01:30;;;;;;;0.30;0.20;;;;;;;9.75;100.00;101003.97;5028210;28;20505;-51
2021/10/01 00:03:57;;;;;;;0.30;0.20;;;;;;;9.68;100.00;101004.03;5022902;28;20537;-51
2021/10/01 00:06:24;;;;;;;0.30;0.20;;;;;;;9.61;100.00;101005.91;5021055;28;20510;-52
2021/10/01 00:08:51;;;;;;;0.30;0.20;;;;;;;9.72;100.00;101000.44;5026478;28;20826;-52
2021/10/01 00:11:18;;;;;;;0.30;0.20;;;;;;;9.46;100.00;100988.41;5028213;28;20810;-52
2021/10/01 00:13:45;;;;;;;0.30;0.20;;;;;;;9.34;100.00;100985.91;5023663;28;20488;-51
2021/10/01 00:16:13;;;;;;;9.30;2.23;;;;;;;9.48;100.00;100988.41;5021399;28;20464;-51
2021/10/01 00:18:40;;;;;;;0.30;0.20;;;;;;;9.36;100.00;100984.13;5034373;28;20509;-51
2021/10/01 00:21:07;;;;;;;0.30;0.20;;;;;;;9.42;100.00;100981.38;5021054;28;20483;-52
2021/10/01 00:23:35;;;;;;;0.30;0.20;;;;;;;9.21;100.00;100984.31;5024244;28;20449;-51
2021/10/01 00:26:03;;;;;;;0.30;0.20;;;;;;;9.15;100.00;100974.63;5027759;28;20456;-52
2021/10/01 00:28:30;;;;;;;0.30;0.20;;;;;;;9.11;100.00;100980.00;5024013;28;20521;-51
2021/10/01 00:30:57;;;;;;;0.30;0.20;;;;;;;9.20;100.00;100980.78;5020469;28;20460;-52
2021/10/01 00:33:24;;;;;;;0.30;0.20;;;;;;;9.10;100.00;100981.78;5024795;28;20491;-51
2021/10/01 00:35:51;;;;;;;0.30;0.20;;;;;;;9.04;100.00;100979.16;5021090;28;20487;-49
2021/10/01 00:38:19;;;;;;;0.30;0.20;;;;;;;9.07;100.00;100976.50;5022679;28;21008;-48
2021/10/01 00:40:46;;;;;;;0.30;0.20;;;;;;;8.86;100.00;100972.31;5027356;28;20519;-47
2021/10/01 00:43:13;;;;;;;0.30;0.20;;;;;;;8.96;100.00;100985.47;5025402;28;20835;-49
2021/10/01 00:45:39;;;;;;;0.30;0.20;;;;;;;8.96;100.00;100975.75;5020586;28;20549;-48
2021/10/01 00:48:06;;;;;;;0.30;0.20;;;;;;;9.00;100.00;100979.22;5022158;28;20480;-48
2021/10/01 00:50:33;;;;;;;0.30;0.20;;;;;;;8.58;100.00;100977.00;5025518;28;20444;-48
2021/10/01 00:53:02;;;;;;;0.30;0.20;;;;;;;8.64;100.00;100975.22;5033633;28;20545;-48
2021/10/01 00:55:29;;;;;;;0.30;0.20;;;;;;;8.74;100.00;100972.44;5019159;28;20467;-48
2021/10/01 00:57:56;;;;;;;0.40;0.40;;;;;;;8.82;100.00;100967.94;5033144;28;20509;-48
2021/10/01 01:00:27;;;;;;;0.30;0.20;;;;;;;8.76;100.00;100967.09;5020246;28;20455;-47
2021/10/01 01:02:57;;;;;;;0.30;0.20;;;;;;;8.86;100.00;100952.88;5020378;28;20529;-51
2021/10/01 01:05:33;;;;;;;0.30;0.20;;;;;;;8.37;100.00;100957.78;5008198;28;20494;-48
2021/10/01 01:08:07;;;;;;;0.30;0.20;;;;;;;8.43;100.00;100957.72;5020168;28;20494;-48
2021/10/01 01:10:38;;;;;;;0.50;0.50;;;;;;;8.54;100.00;100956.75;5023840;28;20506;-48
2021/10/01 01:13:08;;;;;;;0.30;0.20;;;;;;;8.49;100.00;100958.53;5026411;28;21044;-48
2021/10/01 01:15:57;;;;;;;0.30;0.20;;;;;;;8.50;100.00;100949.72;5024198;28;20471;-47
2021/10/01 01:18:31;;;;;;;0.30;0.20;;;;;;;8.31;100.00;100940.13;5008187;28;20475;-47
2021/10/01 01:21:00;;;;;;;0.30;0.20;;;;;;;8.41;100.00;100936.56;5019944;28;20937;-48
2021/10/01 01:23:51;;;;;;;0.30;0.20;;;;;;;8.36;100.00;100937.47;5024169;28;20453;-47
2021/10/01 01:26:49;;;;;;;0.30;0.20;;;;;;;8.30;100.00;100936.59;5026830;28;20495;-48
2021/10/01 01:29:29;;;;;;;0.30;0.20;;;;;;;8.28;100.00;100934.88;5026282;28;20931;-48
2021/10/01 01:31:56;;;;;;;0.30;0.20;;;;;;;8.18;100.00;100936.72;5017057;28;20445;-48
2021/10/01 01:34:34;;;;;;;0.30;0.20;;;;;;;7.96;100.00;100936.03;5026161;28;20904;-50
2021/10/01 01:37:08;;;;;;;0.30;0.20;;;;;;;8.08;100.00;100935.03;5026242;28;20505;-48
2021/10/01 01:39:37;;;;;;;0.30;0.20;;;;;;;7.98;100.00;100928.06;5021499;28;20863;-47
2021/10/01 01:42:05;;;;;;;0.30;0.20;;;;;;;7.88;100.00;100924.59;5019250;28;20452;-47
2021/10/01 01:44:33;;;;;;;0.30;0.20;;;;;;;7.89;100.00;100922.84;5023804;28;20469;-49
2021/10/01 01:47:02;;;;;;;0.30;0.20;;;;;;;8.03;100.00;100924.47;5025977;28;20455;-48
2021/10/01 01:49:30;;;;;;;0.30;0.20;;;;;;;8.11;100.00;100920.91;5020579;28;20451;-47
2021/10/01 01:51:59;;;;;;;0.30;0.20;;;;;;;7.94;100.00;100918.38;5028677;28;20533;-47
2021/10/01 01:54:27;;;;;;;0.30;0.20;;;;;;;7.95;100.00;100921.03;5022976;28;20928;-47
2021/10/01 01:56:56;;;;;;;0.30;0.20;;;;;;;7.76;100.00;100916.75;5028280;28;20521;-48
2021/10/01 01:59:24;;;;;;;0.30;0.20;;;;;;;7.72;100.00;100915.91;5022516;28;20514;-47
2021/10/01 02:01:53;;;;;;;0.30;0.20;;;;;;;7.62;100.00;100913.31;5025714;28;20476;-50
2021/10/01 02:04:22;;;;;;;0.30;0.20;;;;;;;7.71;100.00;100902.69;5023507;28;20513;-49
2021/10/01 02:06:50;;;;;;;0.30;0.20;;;;;;;7.72;100.00;100913.25;5019235;28;20475;-47
2021/10/01 02:09:18;;;;;;;0.30;0.20;;;;;;;7.85;100.00;100905.22;5020916;28;20792;-47
2021/10/01 02:11:47;;;;;;;0.30;0.20;;;;;;;7.87;100.00;100903.44;5025706;28;20981;-47
2021/10/01 02:14:22;;;;;;;0.30;0.20;;;;;;;7.69;100.00;100896.53;5012499;28;20524;-49
2021/10/01 02:16:50;;;;;;;0.30;0.20;;;;;;;7.87;100.00;100900.78;5019380;28;20497;-47
2021/10/01 02:19:20;;;;;;;0.30;0.20;;;;;;;7.54;100.00;100899.25;5019225;28;20460;-47
2021/10/01 02:21:49;;;;;;;0.30;0.20;;;;;;;7.53;100.00;100900.13;5024643;28;20484;-47
2021/10/01 02:24:17;;;;;;;0.30;0.20;;;;;;;7.39;100.00;100885.22;5025681;28;20534;-48
2021/10/01 02:26:50;;;;;;;0.30;0.20;;;;;;;7.46;100.00;100888.72;5020688;28;20502;-48
2021/10/01 02:29:33;;;;;;;0.30;0.20;;;;;;;7.45;100.00;100879.03;5019000;28;20445;-49
2021/10/01 02:32:06;;;;;;;0.40;0.40;;;;;;;7.55;100.00;100882.50;5020653;28;20445;-47
2021/10/01 02:34:37;;;;;;;0.30;0.20;;;;;;;7.30;100.00;100876.50;5025560;28;20935;-47
2021/10/01 02:37:07;;;;;;;0.30;0.20;;;;;;;7.16;100.00;100870.41;5025542;28;20485;-47
2021/10/01 02:39:39;;;;;;;0.30;0.20;;;;;;;7.34;100.00;100876.47;5025623;28;20448;-48
2021/10/01 02:42:09;;;;;;;0.30;0.20;;;;;;;7.24;100.00;100872.09;5025668;28;20503;-48
2021/10/01 02:44:37;;;;;;;0.30;0.20;;;;;;;7.22;100.00;100868.59;5021194;28;20467;-48
2021/10/01 02:47:05;;;;;;;0.70;0.70;;;;;;;7.34;100.00;100862.34;5018901;28;20498;-47
2021/10/01 02:49:33;;;;;;;0.30;0.20;;;;;;;7.22;100.00;100858.00;5023579;28;20890;-48
2021/10/01 02:52:07;;;;;;;0.30;0.20;;;;;;;7.24;100.00;100855.34;5028667;28;20502;-48
2021/10/01 02:54:52;;;;;;;0.30;0.20;;;;;;;7.12;100.00;100851.00;5021025;28;20542;-48
2021/10/01 02:57:22;;;;;;;0.30;0.20;;;;;;;7.15;100.00;100856.31;5019009;28;20490;-49
2021/10/01 02:59:52;;;;;;;0.30;0.20;;;;;;;7.07;100.00;100853.69;5018395;28;20480;-49
2021/10/01 03:02:22;;;;;;;0.30;0.20;;;;;;;6.89;100.00;100852.91;5025147;28;20449;-48
2021/10/01 03:04:54;;;;;;;0.30;0.20;;;;;;;6.79;100.00;100852.06;5029094;28;20467;-48
2021/10/01 03:07:23;;;;;;;0.30;0.20;;;;;;;6.82;100.00;100847.66;5025439;28;20439;-48
2021/10/01 03:09:52;;;;;;;0.30;0.20;;;;;;;6.72;100.00;100845.06;5022108;28;20952;-48
2021/10/01 03:12:21;;;;;;;0.30;0.20;;;;;;;6.91;100.00;100843.22;5025462;28;20820;-48
2021/10/01 03:14:50;;;;;;;0.30;0.20;;;;;;;6.95;100.00;100839.66;5029012;28;20523;-50
2021/10/01 03:17:18;;;;;;;0.30;0.20;;;;;;;7.02;100.00;100842.28;5026619;28;20448;-48
2021/10/01 03:19:46;;;;;;;0.30;0.20;;;;;;;7.02;100.00;100849.34;5022397;28;20482;-48
2021/10/01 03:22:14;;;;;;;0.30;0.20;;;;;;;7.05;100.00;100857.25;5024743;28;20488;-48
2021/10/01 03:24:42;;;;;;;0.30;0.20;;;;;;;6.74;100.00;100849.47;5029018;28;20469;-49
2021/10/01 03:27:09;;;;;;;0.30;0.20;;;;;;;6.68;100.00;100856.50;5027797;28;20513;-48
2021/10/01 03:29:37;;;;;;;0.30;0.20;;;;;;;6.65;100.00;100848.59;5021863;28;20505;-48
2021/10/01 03:32:06;;;;;;;0.30;0.20;;;;;;;6.78;100.00;100850.31;5023005;28;20448;-48
2021/10/01 03:34:33;;;;;;;0.30;0.20;;;;;;;6.80;100.00;100845.91;5028325;28;21005;-48
2021/10/01 03:37:00;;;;;;;0.30;0.20;;;;;;;6.97;100.00;100851.09;5028296;28;20489;-48
2021/10/01 03:39:27;;;;;;;0.30;0.20;;;;;;;6.60;100.00;100846.00;5021878;28;20476;-48
2021/10/01 03:41:54;;;;;;;0.30;0.20;;;;;;;6.57;100.00;100845.97;5022535;28;20459;-48
2021/10/01 03:44:21;;;;;;;0.30;0.20;;;;;;;6.57;100.00;100847.72;5028903;28;21032;-48
2021/10/01 03:46:48;;;;;;;0.30;0.20;;;;;;;6.68;100.00;100841.53;5028124;28;20498;-48
2021/10/01 03:49:16;;;;;;;0.30;0.20;;;;;;;6.62;100.00;100843.34;5021376;28;21018;-48
2021/10/01 03:51:43;;;;;;;0.30;0.20;;;;;;;6.39;100.00;100836.34;5024063;28;20456;-47
2021/10/01 03:54:11;;;;;;;0.30;0.20;;;;;;;6.46;100.00;100831.94;5026773;28;20488;-48
2021/10/01 03:56:38;;;;;;;0.30;0.20;;;;;;;6.59;100.00;100828.38;5029454;28;20562;-48
2021/10/01 03:59:05;;;;;;;0.30;0.20;;;;;;;6.37;100.00;100824.03;5026344;28;20485;-49
2021/10/01 04:01:32;;;;;;;0.30;0.20;;;;;;;6.66;100.00;100824.81;5028095;28;20454;-49
2021/10/01 04:03:59;;;;;;;0.30;0.20;;;;;;;6.79;100.00;100817.72;5023234;28;20579;-48
2021/10/01 04:06:26;;;;;;;0.30;0.20;;;;;;;6.84;100.00;100816.81;5021134;28;20506;-49
2021/10/01 04:08:53;;;;;;;0.30;0.20;;;;;;;6.88;100.00;100822.09;5026194;28;20888;-49
2021/10/01 04:11:21;;;;;;;0.30;0.20;;;;;;;6.70;100.00;100813.34;5028163;28;20451;-47
2021/10/01 04:13:48;;;;;;;0.30;0.20;;;;;;;6.66;100.00;100814.25;5022266;28;20567;-48
2021/10/01 04:16:15;;;;;;;2.67;2.47;;;;;;;6.69;100.00;100808.06;5020887;28;20850;-48
2021/10/01 04:18:42;;;;;;;0.30;0.20;;;;;;;6.69;100.00;100795.75;5025431;28;20448;-48
2021/10/01 04:21:09;;;;;;;0.30;0.23;;;;;;;6.81;100.00;100794.81;5027977;28;20940;-48
2021/10/01 04:23:36;;;;;;;0.30;0.20;;;;;;;6.65;100.00;100799.28;5023737;28;20443;-49
2021/10/01 04:26:04;;;;;;;0.30;0.20;;;;;;;6.75;100.00;100795.72;5020800;28;20452;-48
2021/10/01 04:28:31;;;;;;;0.30;0.20;;;;;;;6.67;100.00;100796.63;5024800;28;20456;-48
2021/10/01 04:30:58;;;;;;;0.30;0.20;;;;;;;6.68;100.00;100801.91;5027339;28;20448;-49
2021/10/01 04:33:25;;;;;;;0.30;0.20;;;;;;;6.75;100.00;100803.66;5024216;28;20975;-49
2021/10/01 04:35:53;;;;;;;0.30;0.20;;;;;;;6.62;100.00;100801.97;5020666;28;20537;-49
2021/10/01 04:38:21;;;;;;;0.30;0.20;;;;;;;6.54;100.00;100804.63;5023712;28;20886;-49
2021/10/01 04:40:48;;;;;;;0.30;0.20;;;;;;;6.49;100.00;100803.75;5027468;28;20515;-48
2021/10/01 04:43:15;;;;;;;0.30;0.20;;;;;;;6.49;100.00;100798.47;5024757;28;20959;-49
2021/10/01 04:45:42;;;;;;;0.30;0.20;;;;;;;6.39;100.00;100798.50;5020389;28;20472;-49
2021/10/01 04:48:09;;;;;;;0.30;0.20;;;;;;;6.41;100.00;100804.66;5022929;28;20449;-50
2021/10/01 04:50:37;;;;;;;0.30;0.20;;;;;;;6.36;100.00;100799.41;5025642;28;20444;-49
2021/10/01 04:53:04;;;;;;;0.30;0.20;;;;;;;6.38;100.00;100796.75;5033605;28;20972;-50
2021/10/01 04:55:32;;;;;;;0.30;0.20;;;;;;;6.43;100.00;100798.50;5020351;28;20580;-48
2021/10/01 04:58:05;;;;;;;0.30;0.20;;;;;;;6.48;100.00;100807.28;5033195;28;20478;-51
2021/10/01 05:00:33;;;;;;;0.30;0.20;;;;;;;6.41;100.00;100800.25;5008711;28;20479;-49
2021/10/01 05:03:01;;;;;;;0.30;0.20;;;;;;;6.55;100.00;100800.22;5019994;28;20476;-49
2021/10/01 05:05:27;;;;;;;0.30;0.20;;;;;;;6.69;100.00;100802.78;5025671;28;20488;-49
2021/10/01 05:07:54;;;;;;;0.30;0.20;;;;;;;6.48;100.00;100804.66;5026750;28;20949;-49
2021/10/01 05:10:21;;;;;;;0.30;0.20;;;;;;;6.55;100.00;100805.50;5019893;28;20448;-50
2021/10/01 05:12:48;;;;;;;0.30;0.20;;;;;;;6.52;100.00;100801.09;5019901;28;20496;-49
2021/10/01 05:15:18;;;;;;;0.30;0.20;;;;;;;6.61;100.00;100807.25;5024807;28;20537;-49
2021/10/01 05:17:45;;;;;;;0.30;0.20;;;;;;;6.54;100.00;100795.81;5026474;28;21005;-49
2021/10/01 05:20:13;;;;;;;0.30;0.20;;;;;;;6.40;100.00;100805.56;5022242;28;20892;-49
2021/10/01 05:22:40;;;;;;;0.30;0.20;;;;;;;6.63;100.00;100810.75;5019660;28;20453;-50
2021/10/01 05:25:09;;;;;;;0.30;0.20;;;;;;;6.50;100.00;100810.81;5023647;28;20501;-49
2021/10/01 05:27:36;;;;;;;0.30;0.20;;;;;;;6.39;100.00;100817.00;5026798;28;20471;-49
2021/10/01 05:30:05;;;;;;;0.30;0.20;;;;;;;6.55;100.00;100821.34;5022657;28;20486;-51
2021/10/01 05:32:33;;;;;;;0.30;0.20;;;;;;;6.41;100.00;100818.75;5019709;28;20475;-50
2021/10/01 05:35:00;;;;;;;0.30;0.20;;;;;;;6.32;100.00;100813.50;5022575;28;20570;-49
2021/10/01 05:37:27;;;;;;;0.30;0.20;;;;;;;6.35;100.00;100818.78;5026153;28;20452;-49
2021/10/01 05:39:56;;;;;;;0.30;0.20;;;;;;;6.44;100.00;100815.22;5023658;28;20487;-50
2021/10/01 05:42:23;;;;;;;0.30;0.20;;;;;;;6.57;100.00;100822.19;5019684;28;20883;-49
2021/10/01 05:44:50;;;;;;;0.30;0.20;;;;;;;6.49;100.00;100822.25;5021998;28;20476;-49
2021/10/01 05:47:17;;;;;;;0.30;0.20;;;;;;;6.51;100.00;100819.59;5026296;28;20476;-49
2021/10/01 05:49:44;;;;;;;0.30;0.20;;;;;;;6.35;100.00;100829.34;5020363;28;20460;-49
2021/10/01 05:52:37;;;;;;;0.30;0.20;;;;;;;6.28;100.00;100824.06;5031144;28;20506;-50
2021/10/01 05:55:05;;;;;;;0.30;0.20;;;;;;;6.33;100.00;100824.94;5017706;28;20488;-49
2021/10/01 05:57:32;;;;;;;0.30;0.20;;;;;;;6.48;100.00;100815.22;5031796;28;20510;-48
2021/10/01 06:00:00;;;;;;;0.30;0.20;;;;;;;6.52;100.00;100810.78;5018951;28;20514;-50
2021/10/01 06:02:28;;;;;;;0.30;0.20;;;;;;;6.46;100.00;100811.72;5023923;28;20452;-49
2021/10/01 06:04:55;;;;;;;0.30;0.20;;;;;;;6.47;100.00;100817.88;5025455;28;20889;-49
2021/10/01 06:07:22;;;;;;;0.40;0.33;;;;;;;6.61;100.00;100820.44;5021563;28;20502;-50
2021/10/01 06:09:49;;;;;;;0.30;0.20;;;;;;;6.67;100.00;100821.28;5018839;28;20463;-48
2021/10/01 06:12:18;;;;;;;0.30;0.20;;;;;;;6.69;100.00;100819.53;5023507;28;20484;-48
2021/10/01 06:14:45;;;;;;;0.30;0.20;;;;;;;6.67;100.00;100813.38;5025491;28;20996;-50
2021/10/01 06:17:13;;;;;;;0.30;0.20;;;;;;;6.81;100.00;100806.25;5021872;28;20451;-49
2021/10/01 06:19:42;;;;;;;0.30;0.20;;;;;;;6.79;100.00;100808.03;5018831;28;20451;-49
2021/10/01 06:22:10;;;;;;;0.30;0.20;;;;;;;6.98;100.00;100802.63;5022024;28;20480;-49
2021/10/01 06:24:37;;;;;;;0.30;0.20;;;;;;;6.98;100.00;100806.16;5025585;28;20503;-49
2021/10/01 06:27:06;;;;;;;0.40;0.40;;;;;;;7.29;100.00;100811.28;5023004;28;20475;-49
2021/10/01 06:29:33;;;;;;;0.30;0.20;;;;;;;7.63;100.00;100810.13;5018593;28;20452;-49
2021/10/01 06:32:01;;;;;;;0.33;0.20;;;;;;;7.65;100.00;100810.97;5021172;28;20483;-49
2021/10/01 06:34:28;;;;;;;0.30;0.20;;;;;;;7.86;100.00;100806.41;5025930;28;20496;-53
2021/10/01 06:36:55;;;;;;;0.30;0.20;;;;;;;7.79;100.00;100799.41;5024961;28;20456;-52
2021/10/01 06:39:22;;;;;;;0.30;0.20;;;;;;;7.95;100.00;100806.34;5022773;28;20872;-52
2021/10/01 06:41:49;;;;;;;0.30;0.20;;;;;;;8.11;100.00;100805.28;5024342;28;20449;-53
2021/10/01 06:44:23;;;;;;;0.30;0.20;;;;;;;7.97;100.00;100801.91;5029331;28;20819;-53
2021/10/01 06:46:55;;;;;;;0.30;0.20;;;;;;;7.97;100.00;100800.13;5029583;28;20472;-52
2021/10/01 08:19:57;;;;;;;3.17;2.87;;;;;;;11.00;100.00;100769.63;5020922;28;21007;-53
2021/10/01 08:22:24;;;;;;;0.30;0.20;;;;;;;10.88;100.00;100767.25;5021060;28;20507;-53
2021/10/01 08:24:52;;;;;;;0.30;0.20;;;;;;;11.21;100.00;100771.78;5027465;28;20890;-53
2021/10/01 08:27:22;;;;;;;0.30;0.20;;;;;;;11.07;100.00;100776.53;5027546;28;20501;-54
2021/10/01 08:29:50;;;;;;;0.30;0.20;;;;;;;10.96;100.00;100771.50;5022010;28;20440;-54
2021/10/01 08:32:18;;;;;;;0.40;0.37;;;;;;;11.13;100.00;100776.44;5020944;28;20457;-54
2021/10/01 08:34:45;;;;;;;0.30;0.20;;;;;;;11.44;100.00;100773.91;5026285;28;20557;-53
2021/10/01 08:37:16;;;;;;;0.30;0.20;;;;;;;11.45;100.00;100766.78;5020812;28;20518;-53
2021/10/01 08:39:43;;;;;;;0.30;0.20;;;;;;;11.63;100.00;100763.66;5025476;28;20542;-53
2021/10/01 08:42:11;;;;;;;0.30;0.20;;;;;;;11.72;99.89;100759.91;5027282;28;20527;-52
2021/10/01 08:44:39;;;;;;;0.30;0.20;;;;;;;11.77;99.24;100760.66;5023245;28;20502;-54
2021/10/01 08:47:07;;;;;;;0.30;0.20;;;;;;;11.57;100.00;100756.72;5020434;28;20826;-52
2021/10/01 08:49:34;;;;;;;0.30;0.20;;;;;;;12.30;99.33;100750.38;5023770;28;20484;-52
2021/10/01 08:52:01;;;;;;;0.30;0.30;;;;;;;12.29;97.35;100753.94;5030563;28;20478;-52
2021/10/01 08:54:29;;;;;;;0.50;0.50;;;;;;;12.37;98.37;100744.84;5023357;28;20475;-52
2021/10/01 08:56:55;;;;;;;0.30;0.20;;;;;;;12.63;96.79;100748.53;5030228;28;20448;-53
2021/10/01 08:59:22;;;;;;;0.30;0.20;;;;;;;12.34;96.54;100752.91;5022749;28;20495;-52
2021/10/01 09:01:50;;;;;;;0.30;0.20;;;;;;;12.42;98.74;100745.56;5027063;28;20532;-52
2021/10/01 09:04:18;;;;;;;0.30;0.20;;;;;;;12.71;96.66;100741.16;5024639;28;20554;-52
2021/10/01 09:06:46;;;;;;;0.77;0.73;;;;;;;12.61;96.76;100731.69;5020043;28;20501;-52
2021/10/01 09:09:13;;;;;;;0.30;0.20;;;;;;;12.77;93.35;100734.78;5022185;28;20452;-52
2021/10/01 09:11:45;;;;;;;0.30;0.20;;;;;;;12.93;92.45;100734.25;5026704;28;20507;-52
2021/10/01 09:14:18;;;;;;;0.40;0.30;;;;;;;13.17;93.18;100735.28;5025607;28;20518;-52
2021/10/01 09:16:45;;;;;;;0.30;0.20;;;;;;;13.43;94.25;100726.47;5020122;28;20491;-53
2021/10/01 09:19:12;;;;;;;0.60;0.60;;;;;;;13.59;93.69;100722.34;5018826;28;20452;-52
2021/10/01 09:21:47;;;;;;;0.30;0.20;;;;;;;13.57;92.61;100726.00;5026640;28;20946;-52
2021/10/01 09:24:17;;;;;;;0.30;0.20;;;;;;;13.73;92.73;100716.53;5026471;28;20523;-52
2021/10/01 09:26:55;;;;;;;0.30;0.20;;;;;;;13.43;93.02;100721.13;5021550;28;20502;-53
2021/10/01 09:29:23;;;;;;;0.30;0.20;;;;;;;13.88;92.91;100704.44;5019703;28;20475;-53
2021/10/01 09:31:51;;;;;;;0.30;0.20;;;;;;;14.01;92.46;100704.88;5023015;28;20457;-53
2021/10/01 09:34:24;;;;;;;0.30;0.20;;;;;;;14.06;91.73;100692.19;5021850;28;20482;-54
2021/10/01 09:37:21;;;;;;;0.30;0.20;;;;;;;14.06;91.16;100690.41;5021598;28;20496;-53
2021/10/01 09:39:54;;;;;;;0.30;0.20;;;;;;;14.11;90.52;100687.53;5014408;28;20486;-53
2021/10/01 09:42:36;;;;;;;0.30;0.20;;;;;;;14.25;90.44;100682.56;5019703;28;21011;-54
2021/10/01 09:45:07;;;;;;;0.30;0.20;;;;;;;14.69;89.54;100678.22;5020564;28;20469;-53
2021/10/01 09:47:37;;;;;;;0.30;0.20;;;;;;;14.56;88.87;100676.09;5026364;28;20456;-53
2021/10/01 09:50:14;;;;;;;0.30;0.20;;;;;;;14.44;85.53;100674.75;5019413;28;20456;-53
2021/10/01 09:52:53;;;;;;;0.30;0.20;;;;;;;14.71;85.83;100668.34;5032695;28;20494;-54
2021/10/01 09:55:46;;;;;;;0.30;0.20;;;;;;;14.70;84.86;100655.03;5019038;28;20491;-54
2021/10/01 09:58:17;;;;;;;0.30;0.20;;;;;;;14.33;84.39;100663.56;5030505;28;20462;-54
2021/10/01 10:00:53;;;;;;;0.30;0.20;;;;;;;14.57;84.78;100661.78;5021497;28;20483;-53
2021/10/01 10:03:24;;;;;;;0.30;0.20;;;;;;;14.67;84.32;100655.16;5019382;28;20884;-52
2021/10/01 10:05:57;;;;;;;0.30;0.20;;;;;;;15.01;82.66;100647.50;5021522;28;20464;-53
2021/10/01 10:08:27;;;;;;;0.30;0.20;;;;;;;14.51;82.91;100645.03;5025813;28;20452;-53
2021/10/01 10:10:55;;;;;;;0.30;0.20;;;;;;;14.77;84.57;100651.16;5024867;28;20456;-53
2021/10/01 10:13:48;;;;;;;0.30;0.20;;;;;;;15.21;82.71;100638.63;5018438;28;20444;-54
2021/10/01 10:16:23;;;;;;;0.30;0.20;;;;;;;15.28;82.60;100648.16;5018908;28;20487;-53
2021/10/01 10:18:57;;;;;;;0.30;0.20;;;;;;;15.43;82.70;100635.91;5021097;28;20448;-53
2021/10/01 10:21:24;;;;;;;0.40;0.20;;;;;;;15.43;83.78;100635.03;5025854;28;20597;-53
2021/10/01 10:23:51;;;;;;;0.40;0.30;;;;;;;15.43;82.94;100629.69;5024530;28;20535;-53
2021/10/01 10:26:18;;;;;;;0.30;0.20;;;;;;;15.56;82.06;100623.72;5018727;28;20447;-53
2021/10/01 10:28:47;;;;;;;0.40;0.20;;;;;;;15.87;80.43;100608.97;5019925;28;20474;-53
2021/10/01 10:31:17;;;;;;;0.30;0.20;;;;;;;15.91;80.64;100610.59;5025610;28;20453;-53
2021/10/01 10:33:50;;;;;;;0.73;0.73;;;;;;;15.92;79.29;100617.72;5018779;28;20448;-52
2021/10/01 10:36:44;;;;;;;0.30;0.20;;;;;;;15.63;78.83;100610.97;5024124;28;20573;-53
2021/10/01 10:39:19;;;;;;;0.40;0.20;;;;;;;15.88;80.65;100608.91;5025620;28;20556;-54
2021/10/01 10:42:04;;;;;;;0.30;0.20;;;;;;;15.94;79.19;100599.72;5024695;28;20496;-54
2021/10/01 10:44:52;;;;;;;0.40;0.20;;;;;;;16.13;79.34;100594.38;5023841;28;20496;-54
2021/10/01 10:47:38;;;;;;;0.30;0.20;;;;;;;16.39;78.99;100591.34;5025588;28;20449;-54
2021/10/01 10:50:26;;;;;;;5.70;2.30;;;;;;;16.29;77.76;100585.53;5019740;28;20502;-53
2021/10/01 10:53:25;;;;;;;0.40;0.20;;;;;;;16.72;77.62;100583.53;5031920;28;20487;-53
2021/10/01 10:55:58;;;;;;;0.40;0.20;;;;;;;16.86;78.09;100572.09;5023359;28;20496;-53
2021/10/01 10:58:36;;;;;;;0.40;0.20;;;;;;;17.06;75.91;100569.25;5025068;28;20996;-53
2021/10/01 11:01:12;;;;;;;0.40;0.20;;;;;;;17.15;75.29;100566.13;5023239;28;20439;-53
2021/10/01 11:03:45;;;;;;;0.40;0.20;;;;;;;16.56;70.52;100558.31;5030816;28;20452;-54
2021/10/01 11:06:18;;;;;;;0.40;0.20;;;;;;;16.51;71.01;100560.38;5018423;28;20822;-53
2021/10/01 11:08:46;;;;;;;0.40;0.20;;;;;;;16.62;71.92;100551.78;5024242;28;20511;-53
2021/10/01 11:11:34;;;;;;;0.40;0.20;;;;;;;16.87;72.55;100544.28;5025340;28;20476;-54
2021/10/01 11:14:17;;;;;;;0.40;0.30;;;;;;;17.05;71.12;100529.91;5022343;28;20479;-54
2021/10/01 11:16:54;;;;;;;0.40;0.20;;;;;;;16.73;71.83;100531.56;5018350;28;20503;-53
2021/10/01 11:19:38;;;;;;;0.60;0.60;;;;;;;16.85;73.45;100522.88;5018895;28;20458;-54
2021/10/01 11:22:31;;;;;;;0.40;0.30;;;;;;;17.08;72.05;100524.38;5021767;28;20453;-53
2021/10/01 11:25:14;;;;;;;0.40;0.30;;;;;;;17.32;71.63;100518.69;5018327;28;20997;-53
2021/10/01 11:27:54;;;;;;;0.40;0.20;;;;;;;17.67;71.11;100511.41;5021819;28;20447;-54
2021/10/01 11:30:23;;;;;;;0.80;0.80;;;;;;;17.66;70.26;100502.47;5024001;28;20537;-53
2021/10/01 11:32:51;;;;;;;0.40;0.30;;;;;;;17.68;70.60;100499.69;5028652;28;20460;-53
2021/10/01 11:35:20;;;;;;;0.40;0.20;;;;;;;17.72;72.08;100494.13;5019861;28;20529;-53
2021/10/01 11:37:50;;;;;;;0.40;0.20;;;;;;;17.85;71.81;100490.75;5021581;28;20451;-52
2021/10/01 11:40:28;;;;;;;0.40;0.20;;;;;;;18.16;71.01;100489.91;5022080;28;20447;-53
2021/10/01 11:43:01;;;;;;;0.40;0.20;;;;;;;18.05;70.16;100483.31;5011661;28;20450;-54
2021/10/01 11:45:35;;;;;;;0.40;0.20;;;;;;;18.18;70.95;100480.78;5021646;28;20515;-53
2021/10/01 11:48:07;;;;;;;0.40;0.20;;;;;;;18.05;71.36;100480.63;5025052;28;20470;-54
2021/10/01 11:50:44;;;;;;;0.40;0.30;;;;;;;17.88;70.47;100466.38;5026527;28;20882;-53
2021/10/01 11:53:18;;;;;;;0.40;0.27;;;;;;;18.24;70.88;100463.44;5035031;28;20455;-54
2021/10/01 11:56:07;;;;;;;2.00;0.43;;;;;;;18.47;69.62;100464.78;5010367;28;20932;-54
2021/10/01 11:58:37;;;;;;;0.40;0.20;;;;;;;18.32;69.51;100456.63;5030362;28;20601;-54
2021/10/01 12:01:16;;;;;;;0.40;0.20;;;;;;;18.36;68.88;100454.63;5026398;28;20463;-53
2021/10/01 12:03:57;;;;;;;0.40;0.20;;;;;;;18.04;67.55;100440.34;5020536;28;20526;-53
2021/10/01 12:06:24;;;;;;;1.33;1.33;;;;;;;18.30;68.40;100439.72;5020055;28;20440;-52
2021/10/01 12:08:59;;;;;;;0.57;0.50;;;;;;;18.13;66.50;100436.28;5026640;28;20574;-53
2021/10/01 12:11:32;;;;;;;0.40;0.20;;;;;;;18.51;66.64;100439.44;5028412;28;20595;-53
2021/10/01 12:14:17;;;;;;;0.40;0.20;;;;;;;18.44;64.89;100430.84;5025669;28;20460;-53
2021/10/01 12:17:17;;;;;;;0.40;0.30;;;;;;;18.49;64.84;100423.34;5026854;28;20488;-53
2021/10/01 12:19:44;;;;;;;0.57;0.57;;;;;;;18.47;65.95;100410.94;4996743;28;20463;-53
2021/10/01 12:22:15;;;;;;;4.37;0.87;;;;;;;18.66;65.88;100400.00;5022262;28;20452;-54
2021/10/01 12:24:52;;;;;;;0.40;0.30;;;;;;;18.68;61.41;100395.38;5028009;28;20442;-53
2021/10/01 12:27:31;;;;;;;0.40;0.20;;;;;;;18.82;61.10;100395.41;5033405;28;20444;-52
2021/10/01 12:29:58;;;;;;;0.40;0.20;;;;;;;18.87;57.93;100394.16;5005687;28;20439;-53
2021/10/01 12:32:25;;;;;;;0.40;0.20;;;;;;;18.83;58.07;100391.75;5021133;28;20452;-53
2021/10/01 12:34:56;;;;;;;0.40;0.20;;;;;;;18.88;57.43;100384.25;5045726;23;20506;-57
2021/10/01 12:37:29;;;;;;;0.40;0.20;;;;;;;19.24;58.40;100383.78;5053690;28;20497;-58
2021/10/01 12:39:59;;;;;;;0.40;0.20;;;;;;;19.31;58.29;100382.44;5053906;28;20478;-58
2021/10/01 12:42:30;;;;;;;0.40;0.20;;;;;;;19.54;59.29;100389.06;5053759;28;20450;-58
2021/10/01 12:45:05;;;;;;;0.40;0.20;;;;;;;19.58;55.66;100385.22;5054038;28;20879;-58
2021/10/01 12:47:35;;;;;;;0.40;0.20;;;;;;;19.65;56.30;100377.63;5027519;28;20447;-58
2021/10/01 12:50:07;;;;;;;0.40;0.20;;;;;;;19.69;54.68;100374.63;5039631;28;20794;-58
2021/10/01 12:52:37;;;;;;;0.40;0.20;;;;;;;19.72;54.40;100373.53;5041640;28;20497;-58
2021/10/01 12:55:07;;;;;;;0.40;0.27;;;;;;;19.68;54.21;100370.19;5039964;28;20902;-58
2021/10/01 12:57:42;;;;;;;0.40;0.20;;;;;;;19.81;55.39;100365.72;5053570;28;20494;-58
2021/10/01 13:00:12;;;;;;;0.40;0.20;;;;;;;19.85;52.97;100362.81;5040148;28;20484;-58
2021/10/01 13:02:41;;;;;;;0.40;0.20;;;;;;;19.93;54.54;100372.16;5043206;28;20824;-58
2021/10/01 13:05:18;;;;;;;0.40;0.20;;;;;;;20.01;53.70;100360.84;5046892;28;20467;-58
2021/10/01 13:07:52;;;;;;;0.40;0.20;;;;;;;19.96;52.23;100355.75;5046713;28;20450;-58
2021/10/01 13:10:30;;;;;;;0.40;0.20;;;;;;;19.91;52.12;100355.19;5045834;28;20459;-58
2021/10/01 13:13:03;;;;;;;0.40;0.20;;;;;;;19.87;52.81;100353.66;5046706;28;20458;-58